createdAt,value
2023-01-19T00:00:56.505Z,89.42
2023-01-19T00:03:23.421Z,89.39
2023-01-19T00:05:50.735Z,89.70
2023-01-19T00:08:17.878Z,89.41
2023-01-19T00:10:48.927Z,89.86
2023-01-19T00:13:16.092Z,89.81
2023-01-19T00:15:43.592Z,89.74
2023-01-19T00:18:11.244Z,89.41
2023-01-19T00:20:40.270Z,89.70
2023-01-19T00:23:08.228Z,89.98
2023-01-19T00:25:42.353Z,89.79
2023-01-19T00:28:14.784Z,89.72
2023-01-19T00:30:42.409Z,89.83
2023-01-19T00:33:11.099Z,89.79
2023-01-19T00:35:38.110Z,89.97
2023-01-19T00:38:05.173Z,90.06
2023-01-19T00:40:32.120Z,90.01
2023-01-19T00:43:00.248Z,90.45
2023-01-19T00:45:27.975Z,90.14
2023-01-19T00:47:57.280Z,90.05
2023-01-19T00:50:26.330Z,90.30
2023-01-19T00:52:55.290Z,89.78
2023-01-19T00:55:23.532Z,90.21
2023-01-19T00:57:50.568Z,90.54
2023-01-19T01:00:19.915Z,90.41
2023-01-19T01:02:49.168Z,90.75
2023-01-19T01:05:16.567Z,90.09
2023-01-19T01:07:47.046Z,90.50
2023-01-19T01:10:23.932Z,90.27
2023-01-19T01:12:53.632Z,90.82
2023-01-19T01:15:24.811Z,90.90
2023-01-19T01:17:53.217Z,90.94
2023-01-19T01:20:28.039Z,90.81
2023-01-19T01:22:56.778Z,90.68
2023-01-19T01:25:27.412Z,90.76
2023-01-19T01:27:55.493Z,90.20
2023-01-19T01:30:23.434Z,90.31
2023-01-19T01:32:50.478Z,90.62
2023-01-19T01:35:17.952Z,90.78
2023-01-19T01:37:45.011Z,90.44
2023-01-19T01:40:17.759Z,90.58
2023-01-19T01:42:45.748Z,90.43
2023-01-19T01:45:40.326Z,90.23
2023-01-19T01:48:18.016Z,90.34
2023-01-19T01:51:10.144Z,90.52
2023-01-19T01:53:38.618Z,90.47
2023-01-19T01:56:14.303Z,90.79
2023-01-19T01:58:41.756Z,90.89
2023-01-19T02:01:29.341Z,90.99
2023-01-19T02:03:57.902Z,91.02
2023-01-19T02:06:25.934Z,90.88
2023-01-19T02:09:27.458Z,90.93
2023-01-19T02:12:13.919Z,91.05
2023-01-19T02:14:40.948Z,90.94
2023-01-19T02:17:08.159Z,91.22
2023-01-19T02:19:42.930Z,90.73
2023-01-19T02:22:38.558Z,90.45
2023-01-19T02:25:06.687Z,90.91
2023-01-19T02:27:34.129Z,90.48
2023-01-19T02:30:03.777Z,90.90
2023-01-19T02:32:30.921Z,90.98
2023-01-19T02:34:58.289Z,91.27
2023-01-19T02:37:26.796Z,91.08
2023-01-19T02:39:57.962Z,90.78
2023-01-19T02:42:30.018Z,90.95
2023-01-19T02:44:58.025Z,90.84
2023-01-19T02:47:25.155Z,91.41
2023-01-19T02:50:00.093Z,90.94
2023-01-19T02:52:28.438Z,91.49
2023-01-19T02:55:18.332Z,91.39
2023-01-19T02:58:09.932Z,91.26
2023-01-19T03:00:48.858Z,91.67
2023-01-19T03:03:32.014Z,91.43
2023-01-19T03:06:15.094Z,91.46
2023-01-19T03:08:48.324Z,91.15
2023-01-19T03:11:15.825Z,91.26
2023-01-19T03:13:58.719Z,91.72
2023-01-19T03:16:50.264Z,91.59
2023-01-19T03:19:46.549Z,91.27
2023-01-19T03:22:24.531Z,91.95
2023-01-19T03:24:55.705Z,91.11
2023-01-19T03:27:41.234Z,91.28
2023-01-19T03:30:11.682Z,91.70
2023-01-19T03:32:47.583Z,91.33
2023-01-19T03:35:16.670Z,91.69
2023-01-19T03:37:48.238Z,91.92
2023-01-19T03:40:15.621Z,91.87
2023-01-19T03:42:43.889Z,91.64
2023-01-19T03:45:13.479Z,91.41
2023-01-19T03:47:41.340Z,91.93
2023-01-19T03:50:18.904Z,91.36
2023-01-19T03:52:45.924Z,91.52
2023-01-19T03:55:13.719Z,91.46
2023-01-19T03:57:40.637Z,91.45
2023-01-19T04:00:08.755Z,92.15
2023-01-19T04:02:35.772Z,92.32
2023-01-19T04:05:02.808Z,92.48
2023-01-19T04:07:29.741Z,92.11
2023-01-19T04:09:56.721Z,92.21
2023-01-19T04:12:23.770Z,92.39
2023-01-19T04:14:50.760Z,92.17
2023-01-19T04:17:17.663Z,92.38
2023-01-19T04:19:45.239Z,92.14
2023-01-19T04:22:12.199Z,92.12
2023-01-19T04:24:39.097Z,91.80
2023-01-19T04:27:06.053Z,92.04
2023-01-19T04:29:33.208Z,91.81
2023-01-19T04:32:00.112Z,92.35
2023-01-19T04:34:27.078Z,92.66
2023-01-19T04:36:56.000Z,92.62
2023-01-19T04:39:23.202Z,91.83
2023-01-19T04:41:51.700Z,92.87
2023-01-19T04:44:18.694Z,92.52
2023-01-19T04:46:45.748Z,91.94
2023-01-19T04:49:12.719Z,92.85
2023-01-19T04:51:39.652Z,92.36
2023-01-19T04:54:09.074Z,92.18
2023-01-19T04:56:36.299Z,92.63
2023-01-19T04:59:03.306Z,92.53
2023-01-19T05:01:30.357Z,91.96
2023-01-19T05:04:00.086Z,92.54
2023-01-19T05:06:27.100Z,92.72
2023-01-19T05:08:54.476Z,92.21
2023-01-19T05:11:21.668Z,92.41
2023-01-19T05:13:50.891Z,92.51
2023-01-19T05:16:18.064Z,92.75
2023-01-19T05:18:45.133Z,93.05
2023-01-19T05:21:12.060Z,92.74
2023-01-19T05:23:39.031Z,92.38
2023-01-19T05:26:06.130Z,92.50
2023-01-19T05:28:33.988Z,92.80
2023-01-19T05:31:01.057Z,92.80
2023-01-19T05:33:28.206Z,92.34
2023-01-19T05:35:55.554Z,93.00
2023-01-19T05:38:34.218Z,92.57
2023-01-19T05:41:02.498Z,92.82
2023-01-19T05:43:29.482Z,92.42
2023-01-19T05:45:56.513Z,92.53
2023-01-19T05:48:23.503Z,92.25
2023-01-19T05:50:51.503Z,92.74
2023-01-19T05:53:18.476Z,92.55
2023-01-19T05:55:45.470Z,92.54
2023-01-19T05:58:12.393Z,92.55
2023-01-19T06:00:39.330Z,92.87
2023-01-19T06:03:06.645Z,92.62
2023-01-19T06:05:34.065Z,92.56
2023-01-19T06:08:01.796Z,92.54
2023-01-19T06:10:28.756Z,92.44
2023-01-19T06:12:55.830Z,92.56
2023-01-19T06:15:22.982Z,92.45
2023-01-19T06:17:49.923Z,92.37
2023-01-19T06:20:17.196Z,92.28
2023-01-19T06:22:44.373Z,92.68
2023-01-19T06:25:11.914Z,92.76
2023-01-19T06:27:39.951Z,92.39
2023-01-19T06:30:07.866Z,92.44
2023-01-19T06:32:34.893Z,92.73
2023-01-19T06:35:01.886Z,92.20
2023-01-19T06:37:30.528Z,92.96
2023-01-19T06:39:57.553Z,92.55
2023-01-19T06:42:24.504Z,92.26
2023-01-19T06:44:51.460Z,92.75
2023-01-19T06:47:18.527Z,92.63
2023-01-19T06:49:45.774Z,92.35
2023-01-19T06:52:17.551Z,92.41
2023-01-19T06:54:46.167Z,92.47
2023-01-19T06:57:14.457Z,92.80
2023-01-19T06:59:41.789Z,92.73
2023-01-19T07:02:27.785Z,92.97
2023-01-19T07:04:56.587Z,92.63
2023-01-19T07:07:23.578Z,92.12
2023-01-19T07:09:53.848Z,92.40
2023-01-19T07:12:22.342Z,92.78
2023-01-19T07:14:49.718Z,92.77
2023-01-19T07:17:16.770Z,92.37
2023-01-19T07:19:43.774Z,92.39
2023-01-19T07:22:10.779Z,92.35
2023-01-19T07:24:38.170Z,92.69
2023-01-19T07:27:05.521Z,92.30
2023-01-19T07:29:32.579Z,92.89
2023-01-19T07:31:59.742Z,93.26
2023-01-19T07:34:26.695Z,92.89
2023-01-19T07:36:53.707Z,92.44
2023-01-19T07:39:20.743Z,92.81
2023-01-19T07:41:50.582Z,92.83
2023-01-19T07:44:17.662Z,92.39
2023-01-19T07:46:44.810Z,93.95
2023-01-19T07:49:12.706Z,94.00
2023-01-19T07:51:39.691Z,94.00
2023-01-19T07:54:08.485Z,94.15
2023-01-19T07:56:35.456Z,94.13
2023-01-19T07:59:02.513Z,93.80
2023-01-19T08:01:29.921Z,93.35
2023-01-19T08:03:57.279Z,93.21
2023-01-19T08:06:35.428Z,93.20
2023-01-19T08:09:05.555Z,92.91
2023-01-19T08:11:33.443Z,92.24
2023-01-19T08:14:00.914Z,91.86
2023-01-19T08:16:28.134Z,91.02
2023-01-19T08:18:55.362Z,90.49
2023-01-19T08:21:22.296Z,89.75
2023-01-19T08:23:57.151Z,88.24
2023-01-19T08:26:29.301Z,87.78
2023-01-19T08:28:59.223Z,86.78
2023-01-19T08:31:26.884Z,85.91
2023-01-19T08:33:54.205Z,84.99
2023-01-19T08:36:22.649Z,83.94
2023-01-19T08:38:49.923Z,83.20
2023-01-19T08:41:17.025Z,82.33
2023-01-19T08:43:45.511Z,81.16
2023-01-19T08:46:12.783Z,80.16
2023-01-19T08:48:40.110Z,79.73
2023-01-19T08:51:07.256Z,79.00
2023-01-19T08:53:34.702Z,78.06
2023-01-19T08:56:02.318Z,77.10
2023-01-19T08:58:29.536Z,75.83
2023-01-19T09:00:56.678Z,75.37
2023-01-19T09:03:24.064Z,74.17
2023-01-19T09:05:51.330Z,73.74
2023-01-19T09:08:18.404Z,72.86
2023-01-19T09:10:50.584Z,72.06
2023-01-19T09:13:19.391Z,71.42
2023-01-19T09:15:47.091Z,70.92
2023-01-19T09:18:18.059Z,69.74
2023-01-19T09:20:48.574Z,68.58
2023-01-19T09:23:20.116Z,68.18
2023-01-19T09:25:48.106Z,68.24
2023-01-19T09:28:17.666Z,67.52
2023-01-19T09:30:45.240Z,67.03
2023-01-19T09:33:17.489Z,66.40
2023-01-19T09:35:47.119Z,65.79
2023-01-19T09:38:16.403Z,65.31
2023-01-19T09:41:04.356Z,64.60
2023-01-19T09:43:45.452Z,64.01
2023-01-19T09:46:41.488Z,63.48
2023-01-19T09:49:36.794Z,63.72
2023-01-19T09:52:04.373Z,63.54
2023-01-19T09:54:54.643Z,62.50
2023-01-19T09:57:27.211Z,62.07
2023-01-19T09:59:59.725Z,61.36
2023-01-19T10:02:47.907Z,60.84
2023-01-19T10:05:45.128Z,61.60
2023-01-19T10:08:30.543Z,61.42
2023-01-19T10:10:58.660Z,61.65
2023-01-19T10:13:44.354Z,60.82
2023-01-19T10:16:14.471Z,61.21
2023-01-19T10:18:51.955Z,61.18
2023-01-19T10:21:34.768Z,61.13
2023-01-19T10:24:11.718Z,61.20
2023-01-19T10:26:56.699Z,61.54
2023-01-19T10:29:36.387Z,61.38
2023-01-19T10:32:35.967Z,61.48
2023-01-19T10:35:21.925Z,62.30
2023-01-19T10:37:49.766Z,62.65
2023-01-19T10:40:36.658Z,62.60
2023-01-19T10:43:38.055Z,62.80
2023-01-19T10:46:50.371Z,62.73
2023-01-19T10:49:39.245Z,63.13
2023-01-19T10:52:39.807Z,63.25
2023-01-19T10:55:24.915Z,63.44
2023-01-19T10:57:53.624Z,64.00
2023-01-19T11:00:41.265Z,64.08
2023-01-19T11:03:32.286Z,64.09
2023-01-19T11:06:27.985Z,64.58
2023-01-19T11:09:19.691Z,64.84
2023-01-19T11:11:50.632Z,65.13
2023-01-19T11:14:24.675Z,65.61
2023-01-19T11:16:58.917Z,65.60
2023-01-19T11:19:30.795Z,65.44
2023-01-19T11:22:24.759Z,65.13
2023-01-19T11:24:52.215Z,65.60
2023-01-19T11:27:21.301Z,65.76
2023-01-19T11:30:12.321Z,65.87
2023-01-19T11:32:39.353Z,66.43
2023-01-19T11:35:33.474Z,66.92
2023-01-19T11:38:23.471Z,67.30
2023-01-19T11:40:59.118Z,67.61
2023-01-19T11:43:39.781Z,67.87
2023-01-19T11:46:15.426Z,68.14
2023-01-19T11:49:05.482Z,68.30
2023-01-19T11:52:04.761Z,68.42
2023-01-19T11:54:56.268Z,68.70
2023-01-19T11:57:23.427Z,68.90
2023-01-19T11:59:53.329Z,69.09
2023-01-19T12:02:43.004Z,69.28
2023-01-19T12:05:16.466Z,69.46
2023-01-19T12:07:45.635Z,69.61
2023-01-19T12:10:28.969Z,69.82
2023-01-19T12:12:57.459Z,69.71
2023-01-19T12:15:29.859Z,70.30
2023-01-19T12:18:02.575Z,70.50
2023-01-19T12:20:39.355Z,70.54
2023-01-19T12:23:57.539Z,70.64
2023-01-19T12:26:49.310Z,70.65
2023-01-19T12:29:22.023Z,70.76
2023-01-19T12:32:14.815Z,71.11
2023-01-19T12:34:49.306Z,70.95
2023-01-19T12:37:30.691Z,71.07
2023-01-19T12:40:00.940Z,71.02
2023-01-19T12:42:28.658Z,70.98
2023-01-19T12:45:14.205Z,71.26
2023-01-19T12:47:54.690Z,71.32
2023-01-19T12:50:25.763Z,71.24
2023-01-19T12:53:04.178Z,71.28
2023-01-19T12:55:39.116Z,71.15
2023-01-19T12:58:18.838Z,71.38
2023-01-19T13:00:49.691Z,71.58
2023-01-19T13:03:16.550Z,71.75
2023-01-19T13:05:43.449Z,71.67
2023-01-19T13:08:10.393Z,72.05
2023-01-19T13:11:09.664Z,72.25
2023-01-19T13:13:46.300Z,72.46
2023-01-19T13:16:19.652Z,72.62
2023-01-19T13:19:08.579Z,72.88
2023-01-19T13:21:44.831Z,72.94
2023-01-19T13:24:19.573Z,73.05
2023-01-19T13:26:49.484Z,73.15
2023-01-19T13:29:37.964Z,73.12
2023-01-19T13:32:15.955Z,73.61
2023-01-19T13:35:01.765Z,73.62
2023-01-19T13:37:39.891Z,73.66
2023-01-19T13:40:08.492Z,74.09
2023-01-19T13:42:41.950Z,74.14
2023-01-19T13:45:37.897Z,74.40
2023-01-19T13:48:16.239Z,74.45
2023-01-19T13:50:45.404Z,74.77
2023-01-19T13:53:20.664Z,74.90
2023-01-19T13:55:50.307Z,75.15
2023-01-19T13:58:22.629Z,75.39
2023-01-19T14:00:50.129Z,75.69
2023-01-19T14:03:23.690Z,75.65
2023-01-19T14:05:53.441Z,75.88
2023-01-19T14:08:21.992Z,75.86
2023-01-19T14:10:56.297Z,75.94
2023-01-19T14:13:31.710Z,76.14
2023-01-19T14:16:20.801Z,76.47
2023-01-19T14:19:04.196Z,76.57
2023-01-19T14:21:40.063Z,76.76
2023-01-19T14:24:20.346Z,76.90
2023-01-19T14:27:17.108Z,77.18
2023-01-19T14:29:45.918Z,77.24
2023-01-19T14:32:20.520Z,77.24
2023-01-19T14:35:04.329Z,77.53
2023-01-19T14:37:47.230Z,77.28
2023-01-19T14:40:19.240Z,77.66
2023-01-19T14:42:52.971Z,77.83
2023-01-19T14:45:30.929Z,78.10
2023-01-19T14:48:02.919Z,78.18
2023-01-19T14:50:51.041Z,78.29
2023-01-19T14:53:29.870Z,78.66
2023-01-19T14:56:02.763Z,78.49
2023-01-19T14:58:33.154Z,78.65
2023-01-19T15:01:00.973Z,78.68
2023-01-19T15:03:43.640Z,79.04
2023-01-19T15:06:19.606Z,79.03
2023-01-19T15:08:50.069Z,79.41
2023-01-19T15:11:35.495Z,79.59
2023-01-19T15:14:03.090Z,79.52
2023-01-19T15:16:33.332Z,79.68
2023-01-19T15:19:00.670Z,79.88
2023-01-19T15:21:27.913Z,79.78
2023-01-19T15:23:55.842Z,79.83
2023-01-19T15:26:25.934Z,79.99
2023-01-19T15:28:53.159Z,79.84
2023-01-19T15:31:23.331Z,80.15
2023-01-19T15:33:50.690Z,80.01
2023-01-19T15:36:20.396Z,80.05
2023-01-19T15:38:50.241Z,80.32
2023-01-19T15:41:26.393Z,80.34
2023-01-19T15:43:53.898Z,80.17
2023-01-19T15:46:22.062Z,80.11
2023-01-19T15:48:50.530Z,80.25
2023-01-19T15:51:21.079Z,80.31
2023-01-19T15:53:50.094Z,80.14
2023-01-19T15:56:23.339Z,80.13
2023-01-19T15:58:51.442Z,80.12
2023-01-19T16:01:22.410Z,80.13
2023-01-19T16:03:50.494Z,80.05
2023-01-19T16:06:18.293Z,80.14
2023-01-19T16:08:45.617Z,80.14
2023-01-19T16:11:15.265Z,79.95
2023-01-19T16:13:46.254Z,80.17
2023-01-19T16:16:18.338Z,80.35
2023-01-19T16:18:45.803Z,80.08
2023-01-19T16:21:12.846Z,80.07
2023-01-19T16:23:39.992Z,80.14
2023-01-19T16:26:23.617Z,80.29
2023-01-19T16:28:50.552Z,80.33
2023-01-19T16:31:17.623Z,80.83
2023-01-19T16:33:47.328Z,80.67
2023-01-19T16:36:29.134Z,80.80
2023-01-19T16:39:01.168Z,81.19
2023-01-19T16:41:28.759Z,81.18
2023-01-19T16:43:57.627Z,81.17
2023-01-19T16:46:30.800Z,81.43
2023-01-19T16:49:04.241Z,81.37
2023-01-19T16:51:32.444Z,80.91
2023-01-19T16:53:59.619Z,81.17
2023-01-19T16:56:26.652Z,81.13
2023-01-19T16:58:58.217Z,81.16
2023-01-19T17:01:29.260Z,81.11
2023-01-19T17:03:56.683Z,81.20
2023-01-19T17:06:24.434Z,81.16
2023-01-19T17:08:53.186Z,81.03
2023-01-19T17:11:29.825Z,81.12
2023-01-19T17:14:11.643Z,81.03
2023-01-19T17:16:38.685Z,80.96
2023-01-19T17:19:07.377Z,81.13
2023-01-19T17:21:35.425Z,81.02
2023-01-19T17:24:02.389Z,80.93
2023-01-19T17:26:31.056Z,81.13
2023-01-19T17:29:04.356Z,81.13
2023-01-19T17:31:32.149Z,81.03
2023-01-19T17:34:00.044Z,80.93
2023-01-19T17:36:29.595Z,81.15
2023-01-19T17:38:59.868Z,81.00
2023-01-19T17:41:30.238Z,81.02
2023-01-19T17:43:59.168Z,81.26
2023-01-19T17:46:28.680Z,80.80
2023-01-19T17:48:58.674Z,80.85
2023-01-19T17:51:26.817Z,80.77
2023-01-19T17:53:55.664Z,80.81
2023-01-19T17:56:29.467Z,80.82
2023-01-19T17:58:58.115Z,80.91
2023-01-19T18:01:31.391Z,80.96
2023-01-19T18:03:59.731Z,80.86
2023-01-19T18:06:26.855Z,80.81
2023-01-19T18:08:54.141Z,80.95
2023-01-19T18:11:21.871Z,80.81
2023-01-19T18:13:50.751Z,80.89
2023-01-19T18:16:27.763Z,80.85
2023-01-19T18:18:56.400Z,80.64
2023-01-19T18:21:27.492Z,80.87
2023-01-19T18:24:05.639Z,80.72
2023-01-19T18:26:35.368Z,80.41
2023-01-19T18:29:02.349Z,80.74
2023-01-19T18:31:29.666Z,80.75
2023-01-19T18:33:56.806Z,80.60
2023-01-19T18:36:23.981Z,80.41
2023-01-19T18:38:51.605Z,80.57
2023-01-19T18:41:20.623Z,80.68
2023-01-19T18:43:49.236Z,80.51
2023-01-19T18:46:16.873Z,80.54
2023-01-19T18:48:43.994Z,80.33
2023-01-19T18:51:15.923Z,80.50
2023-01-19T18:53:44.056Z,80.56
2023-01-19T18:56:13.286Z,80.32
2023-01-19T18:58:40.691Z,80.48
2023-01-19T19:01:32.943Z,80.25
2023-01-19T19:04:00.805Z,80.49
2023-01-19T19:06:28.474Z,80.51
2023-01-19T19:08:59.293Z,80.24
2023-01-19T19:11:27.600Z,80.46
2023-01-19T19:13:58.661Z,80.28
2023-01-19T19:16:25.980Z,80.49
2023-01-19T19:18:53.061Z,80.26
2023-01-19T19:21:21.952Z,80.38
2023-01-19T19:23:54.893Z,80.14
2023-01-19T19:26:23.214Z,80.29
2023-01-19T19:28:50.250Z,80.22
2023-01-19T19:31:21.123Z,80.16
2023-01-19T19:35:02.745Z,80.17
2023-01-19T19:37:30.227Z,80.36
2023-01-19T19:39:57.959Z,80.26
2023-01-19T19:42:25.137Z,80.13
2023-01-19T19:44:52.932Z,80.28
2023-01-19T19:47:19.923Z,80.05
2023-01-19T19:49:46.966Z,80.12
2023-01-19T19:52:13.925Z,80.32
2023-01-19T19:54:41.565Z,80.25
2023-01-19T19:57:08.531Z,80.15
2023-01-19T19:59:35.520Z,80.31
2023-01-19T20:02:02.529Z,80.33
2023-01-19T20:04:29.586Z,80.38
2023-01-19T20:06:59.142Z,80.69
2023-01-19T20:09:26.181Z,80.36
2023-01-19T20:11:53.140Z,80.43
2023-01-19T20:14:22.445Z,80.37
2023-01-19T20:16:49.832Z,80.40
2023-01-19T20:19:18.363Z,80.48
2023-01-19T20:21:45.353Z,80.36
2023-01-19T20:24:18.383Z,80.35
2023-01-19T20:26:50.322Z,80.34
2023-01-19T20:29:17.881Z,80.42
2023-01-19T20:31:49.477Z,80.55
2023-01-19T20:34:20.503Z,80.29
2023-01-19T20:36:49.830Z,80.38
2023-01-19T20:39:18.473Z,80.39
2023-01-19T20:41:45.762Z,80.49
2023-01-19T20:44:16.460Z,80.20
2023-01-19T20:46:43.517Z,80.37
2023-01-19T20:49:10.484Z,80.20
2023-01-19T20:51:41.607Z,80.33
2023-01-19T20:54:10.994Z,80.29
2023-01-19T20:56:38.546Z,80.37
2023-01-19T20:59:05.486Z,80.29
2023-01-19T21:01:32.529Z,80.28
2023-01-19T21:03:59.587Z,80.28
2023-01-19T21:06:26.586Z,80.18
2023-01-19T21:08:54.450Z,80.05
2023-01-19T21:11:23.907Z,80.18
2023-01-19T21:13:55.483Z,80.34
2023-01-19T21:16:32.275Z,80.28
2023-01-19T21:18:59.937Z,80.21
2023-01-19T21:21:31.630Z,80.49
2023-01-19T21:24:02.248Z,80.24
2023-01-19T21:26:30.321Z,80.53
2023-01-19T21:29:02.734Z,80.30
2023-01-19T21:31:30.714Z,80.46
2023-01-19T21:33:58.142Z,80.46
2023-01-19T21:36:25.449Z,80.50
2023-01-19T21:38:52.711Z,80.50
2023-01-19T21:41:19.915Z,80.37
2023-01-19T21:43:48.238Z,80.77
2023-01-19T21:46:19.538Z,80.49
2023-01-19T21:48:47.362Z,80.46
2023-01-19T21:51:15.416Z,80.49
2023-01-19T21:53:42.749Z,80.59
2023-01-19T21:56:11.306Z,80.36
2023-01-19T21:58:39.013Z,80.26
2023-01-19T22:01:15.332Z,80.32
2023-01-19T22:03:42.988Z,80.40
2023-01-19T22:06:13.668Z,80.50
2023-01-19T22:08:41.434Z,80.50
2023-01-19T22:11:11.480Z,80.60
2023-01-19T22:13:39.770Z,80.60
2023-01-19T22:16:10.925Z,80.72
2023-01-19T22:18:40.837Z,80.73
2023-01-19T22:21:17.353Z,80.87
2023-01-19T22:23:44.785Z,80.97
2023-01-19T22:26:12.236Z,80.89
2023-01-19T22:28:39.494Z,81.31
2023-01-19T22:31:16.776Z,81.16
2023-01-19T22:33:44.398Z,80.74
2023-01-19T22:36:28.656Z,80.81
2023-01-19T22:39:01.939Z,80.78
2023-01-19T22:41:28.878Z,80.78
2023-01-19T22:43:59.186Z,81.21
2023-01-19T22:46:30.070Z,80.96
2023-01-19T22:48:57.809Z,81.03
2023-01-19T22:51:26.246Z,81.12
2023-01-19T22:53:53.270Z,81.13
2023-01-19T22:56:22.299Z,81.13
2023-01-19T22:58:50.503Z,81.07
2023-01-19T23:01:41.529Z,81.25
2023-01-19T23:04:13.699Z,81.26
2023-01-19T23:06:40.706Z,81.47
2023-01-19T23:09:13.544Z,81.29
2023-01-19T23:11:43.463Z,81.61
2023-01-19T23:14:16.961Z,81.54
2023-01-19T23:16:44.509Z,81.75
2023-01-19T23:19:13.779Z,81.82
2023-01-19T23:21:41.401Z,81.80
2023-01-19T23:24:09.023Z,81.79
2023-01-19T23:26:38.290Z,81.82
2023-01-19T23:29:14.178Z,81.88
2023-01-19T23:31:46.992Z,81.87
2023-01-19T23:34:16.605Z,81.98
2023-01-19T23:36:44.134Z,81.99
2023-01-19T23:39:21.093Z,82.05
2023-01-19T23:41:48.274Z,82.08
2023-01-19T23:44:15.846Z,82.31
2023-01-19T23:46:43.967Z,82.30
2023-01-19T23:49:11.721Z,82.48
2023-01-19T23:51:40.753Z,82.59
2023-01-19T23:54:08.272Z,82.65
2023-01-19T23:56:38.190Z,82.83
2023-01-19T23:59:13.779Z,82.95
